Time;durP1;ratioP1;P1;durP2;ratioP2;P2;SDS_P1;SDS_P2;PMS_P1;PMS_P2;Temp;Humidity;BMP_temperature;BMP_pressure;BME280_temperature;BME280_humidity;BME280_pressure;Samples;Min_cycle;Max_cycle;Signal;HPM_P1;HPM_P2
2021/03/12 00:00:37;;;;;;;0.52;0.52;;;;;;;1.26;100.00;98373.91;4991945;28;20066;-81
2021/03/12 00:03:40;;;;;;;0.93;0.93;;;;;;;1.20;100.00;98381.19;4991649;28;20057;-80
2021/03/12 00:06:44;;;;;;;1.58;1.45;;;;;;;1.19;100.00;98385.13;4992162;28;20515;-80
2021/03/12 00:09:47;;;;;;;13.05;2.55;;;;;;;1.18;100.00;98393.81;4992067;28;20069;-80
2021/03/12 00:12:51;;;;;;;19.10;2.30;;;;;;;1.28;100.00;98387.91;4992220;28;20065;-80
2021/03/12 00:15:54;;;;;;;0.50;0.50;;;;;;;1.36;100.00;98377.47;4999646;28;20085;-80
2021/03/12 00:18:58;;;;;;;0.63;0.63;;;;;;;1.41;100.00;98374.88;5011538;28;20530;-80
2021/03/12 00:22:02;;;;;;;0.70;0.70;;;;;;;1.45;100.00;98367.28;5011400;28;20058;-80
2021/03/12 00:25:09;;;;;;;0.63;0.63;;;;;;;1.51;100.00;98379.22;5011767;28;20061;-80
2021/03/12 00:28:14;;;;;;;1.13;1.13;;;;;;;1.50;100.00;98366.72;5010546;28;20065;-80
2021/03/12 00:31:17;;;;;;;0.80;0.80;;;;;;;1.50;100.00;98366.72;5010756;28;20069;-81
2021/03/12 00:34:21;;;;;;;20.58;1.50;;;;;;;1.59;100.00;98365.22;5010015;28;20061;-80
2021/03/12 00:37:24;;;;;;;0.82;0.82;;;;;;;1.65;100.00;98366.91;5010156;28;20061;-80
2021/03/12 00:40:31;;;;;;;2.80;0.95;;;;;;;1.85;100.00;98375.53;5011492;28;20057;-79
2021/03/12 00:43:37;;;;;;;1.02;0.93;;;;;;;2.03;100.00;98374.81;5011024;28;20515;-80
2021/03/12 00:46:40;;;;;;;22.20;1.90;;;;;;;2.07;100.00;98369.94;5010722;28;20518;-80
2021/03/12 00:49:43;;;;;;;5.97;0.90;;;;;;;1.99;100.00;98368.72;5009566;28;20061;-80
2021/03/12 00:52:48;;;;;;;5.80;1.35;;;;;;;1.90;100.00;98374.16;5010029;28;20061;-80
2021/03/12 00:55:52;;;;;;;1.10;1.00;;;;;;;1.82;100.00;98370.19;5011036;28;20568;-80
2021/03/12 00:58:55;;;;;;;11.35;0.90;;;;;;;1.77;100.00;98374.28;5010464;28;20057;-81
2021/03/12 01:01:58;;;;;;;4.50;1.75;;;;;;;1.75;100.00;98359.50;5011258;28;20076;-81
2021/03/12 01:05:04;;;;;;;0.70;0.70;;;;;;;1.65;100.00;98360.66;5010983;28;20061;-80
2021/03/12 01:08:08;;;;;;;7.32;1.52;;;;;;;1.52;100.00;98345.06;5010754;28;20424;-80
2021/03/12 01:11:12;;;;;;;1.15;1.05;;;;;;;1.42;100.00;98349.00;5010540;28;20419;-80
2021/03/12 01:14:15;;;;;;;1.58;0.85;;;;;;;1.38;100.00;98340.16;5010493;28;20526;-80
2021/03/12 01:17:18;;;;;;;0.95;0.88;;;;;;;1.34;100.00;98347.72;4990462;28;20180;-80
2021/03/12 01:20:25;;;;;;;3.60;0.93;;;;;;;1.35;100.00;98346.53;4991459;28;20117;-80
2021/03/12 01:23:29;;;;;;;7.30;1.58;;;;;;;1.33;100.00;98345.44;4993684;28;20065;-80
2021/03/12 01:26:32;;;;;;;0.70;0.70;;;;;;;1.36;100.00;98353.56;4991109;28;20417;-80
2021/03/12 01:29:36;;;;;;;1.67;1.10;;;;;;;1.41;100.00;98347.47;4990405;28;20065;-80
2021/03/12 01:32:39;;;;;;;0.82;0.82;;;;;;;1.47;100.00;98345.66;4990948;28;20070;-80
2021/03/12 01:35:43;;;;;;;1.25;0.82;;;;;;;1.54;100.00;98344.63;4990033;28;20058;-80
2021/03/12 01:38:47;;;;;;;6.10;0.98;;;;;;;1.64;100.00;98345.41;4990662;28;20055;-80
2021/03/12 01:41:51;;;;;;;34.90;1.63;;;;;;;1.84;100.00;98343.06;4990395;28;20062;-81
2021/03/12 01:44:54;;;;;;;1.17;0.90;;;;;;;1.97;100.00;98343.69;4990579;28;20077;-80
2021/03/12 01:47:59;;;;;;;8.38;1.17;;;;;;;2.03;100.00;98341.88;4990247;28;20057;-80
2021/03/12 01:51:05;;;;;;;0.85;0.85;;;;;;;2.08;100.00;98322.81;4990859;28;20531;-80
2021/03/12 01:54:08;;;;;;;0.68;0.68;;;;;;;2.15;100.00;98327.25;4990952;28;20061;-79
2021/03/12 01:57:12;;;;;;;1.02;0.90;;;;;;;2.19;100.00;98316.88;4990740;28;20428;-80
2021/03/12 02:00:16;;;;;;;13.13;0.98;;;;;;;2.21;100.00;98308.94;4990345;28;20554;-80
2021/03/12 02:03:22;;;;;;;0.75;0.75;;;;;;;2.23;100.00;98315.50;4989372;28;20061;-80
2021/03/12 02:06:25;;;;;;;1.67;0.80;;;;;;;2.28;100.00;98305.88;4990353;28;20060;-80
2021/03/12 02:09:29;;;;;;;0.77;0.65;;;;;;;2.34;100.00;98301.31;4991000;28;20069;-80
2021/03/12 02:12:38;;;;;;;0.30;0.30;;;;;;;2.36;100.00;98292.63;4990114;28;20065;-81
2021/03/12 02:15:49;;;;;;;0.75;0.68;;;;;;;2.39;100.00;98284.22;4997251;28;20065;-81
2021/03/12 02:19:02;;;;;;;0.77;0.77;;;;;;;2.42;100.00;98274.31;5010187;28;20535;-80
2021/03/12 02:22:07;;;;;;;1.38;1.27;;;;;;;2.42;100.00;98269.59;5009984;28;20732;-80
2021/03/12 02:25:15;;;;;;;0.68;0.68;;;;;;;2.52;100.00;98268.34;5010086;28;20096;-80
2021/03/12 02:28:21;;;;;;;0.47;0.47;;;;;;;2.60;100.00;98269.53;5012296;28;20057;-80
2021/03/12 02:31:26;;;;;;;1.98;1.00;;;;;;;2.62;100.00;98258.84;5012745;28;20056;-80
2021/03/12 02:34:36;;;;;;;12.75;1.88;;;;;;;2.63;100.00;98257.66;5013815;28;20061;-80
2021/03/12 02:37:41;;;;;;;2.13;0.95;;;;;;;2.62;100.00;98249.88;5013568;28;20065;-80
2021/03/12 02:40:45;;;;;;;8.13;0.75;;;;;;;2.68;100.00;98253.50;5013546;28;20437;-80
2021/03/12 02:43:49;;;;;;;1.25;1.25;;;;;;;2.73;100.00;98248.16;5013539;28;20311;-79
2021/03/12 02:46:59;;;;;;;3.03;1.80;;;;;;;2.81;100.00;98252.13;5013150;28;20064;-80
2021/03/12 02:50:05;;;;;;;1.83;1.17;;;;;;;2.92;100.00;98240.63;5013643;28;20056;-80
2021/03/12 02:53:08;;;;;;;9.90;0.90;;;;;;;3.00;100.00;98237.09;5013430;28;20061;-80
2021/03/12 02:56:13;;;;;;;0.35;0.35;;;;;;;3.06;100.00;98239.94;5011965;28;20060;-81
2021/03/12 02:59:18;;;;;;;0.50;0.50;;;;;;;3.12;100.00;98229.09;4993795;28;20085;-80
2021/03/12 03:02:24;;;;;;;6.82;0.98;;;;;;;3.21;100.00;98221.56;4992226;28;20065;-80
2021/03/12 03:05:28;;;;;;;1.20;1.20;;;;;;;3.29;100.00;98219.25;4995330;28;20066;-81
2021/03/12 03:08:38;;;;;;;3.15;1.25;;;;;;;3.33;100.00;98219.81;4993789;28;20069;-80
2021/03/12 03:11:43;;;;;;;1.17;1.08;;;;;;;3.39;100.00;98212.44;4992536;28;20413;-80
2021/03/12 03:14:50;;;;;;;3.40;1.15;;;;;;;3.40;100.00;98205.72;4993192;28;20073;-80
2021/03/12 03:17:54;;;;;;;1.10;1.05;;;;;;;3.43;100.00;98202.03;4993169;28;20736;-81
2021/03/12 03:21:01;;;;;;;3.08;0.73;;;;;;;3.45;100.00;98194.06;4993078;28;20065;-81
2021/03/12 03:24:05;;;;;;;3.55;1.40;;;;;;;3.50;100.00;98201.69;4992934;28;20065;-81
2021/03/12 03:27:08;;;;;;;2.40;1.80;;;;;;;3.50;100.00;98201.69;5003823;28;20069;-81
2021/03/12 03:30:14;;;;;;;7.32;1.77;;;;;;;3.53;100.00;98203.50;4992436;28;20415;-81
2021/03/12 03:33:17;;;;;;;10.88;0.70;;;;;;;3.53;100.00;98206.28;4994907;28;20053;-81
2021/03/12 03:36:20;;;;;;;1.77;0.90;;;;;;;3.52;100.00;98199.22;4997413;28;20065;-80
2021/03/12 03:39:24;;;;;;;1.20;0.95;;;;;;;3.47;100.00;98188.84;4995787;28;20061;-81
2021/03/12 03:42:29;;;;;;;2.70;0.70;;;;;;;3.40;100.00;98197.47;4992494;28;20065;-81
2021/03/12 03:45:34;;;;;;;1.30;1.20;;;;;;;3.34;100.00;98182.81;4992102;28;20069;-81
2021/03/12 03:48:40;;;;;;;1.05;1.05;;;;;;;3.30;100.00;98193.25;4991529;28;20074;-80
2021/03/12 03:51:43;;;;;;;0.85;0.85;;;;;;;3.25;100.00;98175.38;4992036;28;20074;-80
2021/03/12 03:54:50;;;;;;;0.32;0.32;;;;;;;3.24;100.00;98168.38;4992605;28;20074;-80
2021/03/12 03:57:57;;;;;;;1.85;1.08;;;;;;;3.23;100.00;98166.09;4991531;28;20053;-80
2021/03/12 04:01:01;;;;;;;0.30;0.30;;;;;;;3.22;100.00;98161.81;4992168;28;20061;-81
2021/03/12 04:04:07;;;;;;;0.38;0.38;;;;;;;3.19;100.00;98149.75;4991679;28;20539;-80
2021/03/12 04:07:11;;;;;;;0.40;0.40;;;;;;;3.20;100.00;98145.00;4992271;28;20070;-80
2021/03/12 04:10:15;;;;;;;0.30;0.30;;;;;;;3.23;100.00;98149.59;4991987;28;20065;-81
2021/03/12 04:13:21;;;;;;;0.60;0.60;;;;;;;3.24;100.00;98142.84;4990357;28;20065;-81
2021/03/12 04:16:26;;;;;;;0.30;0.30;;;;;;;3.22;100.00;98142.56;5004147;28;20065;-81
2021/03/12 04:19:31;;;;;;;5.72;1.20;;;;;;;3.18;100.00;98142.75;5011190;28;20065;-80
2021/03/12 04:22:36;;;;;;;0.50;0.50;;;;;;;3.11;100.00;98131.31;5011725;28;20065;-81
2021/03/12 04:25:41;;;;;;;0.63;0.63;;;;;;;2.95;100.00;98118.72;5010743;28;20077;-81
2021/03/12 04:28:46;;;;;;;0.50;0.50;;;;;;;2.88;100.00;98113.59;5011405;28;20068;-81
2021/03/12 04:31:50;;;;;;;4.47;1.13;;;;;;;2.87;100.00;98118.31;5011424;28;20308;-80
2021/03/12 04:34:54;;;;;;;4.10;0.68;;;;;;;2.90;100.00;98100.88;5011156;28;20531;-81
2021/03/12 04:37:58;;;;;;;0.35;0.35;;;;;;;2.83;100.00;98101.22;5011056;28;20065;-81
2021/03/12 04:41:02;;;;;;;1.13;1.10;;;;;;;2.76;100.00;98101.56;5011302;28;20057;-81
2021/03/12 04:44:09;;;;;;;17.42;0.90;;;;;;;2.76;100.00;98093.31;5010867;28;20076;-81
2021/03/12 04:47:13;;;;;;;1.13;0.85;;;;;;;2.72;100.00;98084.50;5010661;28;20080;-81
2021/03/12 04:50:17;;;;;;;0.68;0.57;;;;;;;2.68;100.00;98083.13;5009620;28;20065;-81
2021/03/12 04:53:21;;;;;;;0.82;0.82;;;;;;;2.65;100.00;98073.81;5011287;28;20060;-81
2021/03/12 04:56:25;;;;;;;2.45;0.98;;;;;;;2.62;100.00;98072.00;5010912;28;20080;-81
2021/03/12 04:59:28;;;;;;;0.90;0.90;;;;;;;2.61;100.00;98067.75;5011161;28;20420;-81
2021/03/12 05:02:33;;;;;;;1.75;0.90;;;;;;;2.60;100.00;98066.22;5010780;28;20068;-81
2021/03/12 05:05:38;;;;;;;0.60;0.60;;;;;;;2.61;100.00;98078.72;5011049;28;20057;-81
2021/03/12 05:08:44;;;;;;;0.40;0.40;;;;;;;2.62;100.00;98080.25;5011034;28;20069;-81
2021/03/12 05:11:47;;;;;;;0.70;0.70;;;;;;;2.64;100.00;98077.06;5010777;28;20057;-81
2021/03/12 05:14:50;;;;;;;1.42;0.60;;;;;;;2.65;100.00;98084.06;5010245;28;20069;-81
2021/03/12 05:17:53;;;;;;;3.50;0.65;;;;;;;2.66;100.00;98086.34;4990882;28;20062;-81
2021/03/12 05:20:57;;;;;;;0.75;0.75;;;;;;;2.75;100.00;98078.03;4991838;28;20077;-81
2021/03/12 05:24:01;;;;;;;2.17;0.85;;;;;;;2.78;100.00;98077.13;5005985;28;20523;-81
2021/03/12 05:27:04;;;;;;;0.30;0.30;;;;;;;2.82;100.00;98074.97;5008702;28;20076;-81
2021/03/12 05:30:09;;;;;;;0.57;0.38;;;;;;;2.91;100.00;98055.66;5010272;28;20065;-81
2021/03/12 05:33:12;;;;;;;2.78;1.05;;;;;;;2.99;100.00;98067.81;5010063;28;20065;-81
2021/03/12 05:36:16;;;;;;;3.60;1.23;;;;;;;3.03;100.00;98060.16;5010063;28;20057;-81
2021/03/12 05:39:22;;;;;;;0.55;0.55;;;;;;;3.07;100.00;98060.75;5009356;28;20129;-81
2021/03/12 05:42:26;;;;;;;0.40;0.40;;;;;;;3.14;100.00;98058.88;5010472;28;20057;-82
2021/03/12 05:45:29;;;;;;;1.00;0.80;;;;;;;3.19;100.00;98056.25;5009465;28;20234;-82
2021/03/12 05:48:34;;;;;;;0.70;0.70;;;;;;;3.20;100.00;98059.75;5010017;28;20066;-81
2021/03/12 05:51:37;;;;;;;0.40;0.40;;;;;;;3.23;100.00;98047.81;5010165;28;20053;-82
2021/03/12 05:54:44;;;;;;;0.50;0.50;;;;;;;3.21;100.00;98047.50;5010022;28;20081;-82
2021/03/12 05:57:48;;;;;;;7.72;1.00;;;;;;;3.21;100.00;98042.78;5010220;28;20419;-82
2021/03/12 06:00:52;;;;;;;2.75;0.73;;;;;;;3.24;100.00;98046.56;5010355;28;20699;-81
2021/03/12 06:03:55;;;;;;;0.70;0.70;;;;;;;3.25;100.00;98048.13;5013437;28;20061;-80
2021/03/12 06:06:58;;;;;;;1.02;1.02;;;;;;;3.24;100.00;98038.34;5013917;28;20133;-81
2021/03/12 06:10:04;;;;;;;0.80;0.80;;;;;;;3.23;100.00;98039.56;5013581;28;20064;-81
2021/03/12 06:13:08;;;;;;;0.70;0.70;;;;;;;3.19;100.00;98038.97;5013861;28;20061;-82
2021/03/12 06:16:24;;;;;;;0.50;0.50;;;;;;;3.15;100.00;98016.38;5013370;28;20072;-81
2021/03/12 06:19:27;;;;;;;0.77;0.50;;;;;;;3.08;100.00;98023.78;5013395;28;20069;-82
2021/03/12 06:22:31;;;;;;;1.50;1.40;;;;;;;2.99;100.00;98031.31;5013412;28;20061;-82
2021/03/12 06:25:36;;;;;;;3.75;1.27;;;;;;;2.92;100.00;98026.94;5013704;28;20061;-82
2021/03/12 06:28:39;;;;;;;10.23;3.30;;;;;;;2.84;100.00;98022.25;5013481;28;20078;-83
2021/03/12 06:31:51;;;;;;;7.65;3.53;;;;;;;2.77;100.00;98020.63;5013286;28;20065;-82
2021/03/12 06:35:00;;;;;;;9.17;3.90;;;;;;;2.71;100.00;98027.22;5012184;28;20531;-82
2021/03/12 06:38:10;;;;;;;19.95;4.07;;;;;;;2.63;100.00;98018.59;5013389;28;20065;-82
2021/03/12 06:41:40;;;;;;;4.30;2.22;;;;;;;2.59;100.00;98008.97;5012006;28;20061;-82
2021/03/12 06:44:44;;;;;;;8.00;2.75;;;;;;;2.54;100.00;97998.63;5032145;28;20060;-82
2021/03/12 06:47:47;;;;;;;3.30;1.25;;;;;;;2.47;100.00;98001.75;5033253;28;20061;-82
2021/03/12 06:51:03;;;;;;;0.60;0.60;;;;;;;2.43;100.00;98007.38;5032156;28;20072;-82
2021/03/12 06:54:06;;;;;;;0.80;0.80;;;;;;;2.45;100.00;97993.94;5031973;28;20060;-81
2021/03/12 06:57:21;;;;;;;0.93;0.93;;;;;;;2.48;100.00;97993.03;5032247;28;20562;-82
2021/03/12 07:00:32;;;;;;;0.82;0.82;;;;;;;2.52;100.00;97993.59;5019691;28;20072;-82
2021/03/12 07:03:35;;;;;;;0.38;0.38;;;;;;;2.59;100.00;97992.50;5021054;28;20515;-83
2021/03/12 07:06:47;;;;;;;5.57;1.00;;;;;;;2.65;100.00;97988.66;5012496;28;20416;-82
2021/03/12 07:09:57;;;;;;;0.60;0.60;;;;;;;2.71;100.00;97980.50;5005641;28;20074;-80
2021/03/12 07:13:00;;;;;;;0.80;0.80;;;;;;;2.78;100.00;97972.69;5001006;28;20062;-81
2021/03/12 07:16:05;;;;;;;0.88;0.88;;;;;;;2.83;100.00;97974.78;5002544;28;20427;-80
2021/03/12 07:19:08;;;;;;;0.63;0.63;;;;;;;2.87;100.00;97964.38;5010809;28;20064;-84
2021/03/12 07:22:13;;;;;;;0.50;0.50;;;;;;;2.94;100.00;97961.28;5012319;28;20061;-83
2021/03/12 07:25:21;;;;;;;0.77;0.57;;;;;;;2.98;100.00;97961.84;5011055;28;20068;-81
2021/03/12 07:28:27;;;;;;;0.73;0.60;;;;;;;3.00;100.00;97967.63;5012101;28;20052;-81
2021/03/12 07:31:35;;;;;;;0.30;0.30;;;;;;;3.06;100.00;97959.47;5012742;28;20061;-82
2021/03/12 07:34:39;;;;;;;0.73;0.73;;;;;;;3.11;100.00;97955.31;5011960;28;20080;-82
2021/03/12 07:37:44;;;;;;;0.70;0.70;;;;;;;3.12;100.00;97945.84;5011211;28;20553;-82
2021/03/12 07:40:48;;;;;;;1.67;0.35;;;;;;;3.12;100.00;97948.59;5011912;28;20057;-82
2021/03/12 07:43:52;;;;;;;0.70;0.70;;;;;;;3.14;100.00;97943.38;5010974;28;20061;-83
2021/03/12 07:46:56;;;;;;;0.32;0.32;;;;;;;3.16;100.00;97929.94;5012423;28;20061;-83
2021/03/12 07:50:00;;;;;;;0.60;0.60;;;;;;;3.15;100.00;97937.41;5011710;28;20064;-84
2021/03/12 07:53:05;;;;;;;0.60;0.60;;;;;;;3.11;100.00;97936.84;5010953;28;20061;-83
2021/03/12 07:56:11;;;;;;;0.70;0.70;;;;;;;3.06;100.00;97941.00;5010861;28;20416;-83
2021/03/12 07:59:14;;;;;;;3.70;0.82;;;;;;;3.03;100.00;97944.69;5011438;28;20060;-82
2021/03/12 08:02:18;;;;;;;0.43;0.43;;;;;;;2.99;100.00;97963.34;5011386;28;20061;-82
2021/03/12 08:05:35;;;;;;;0.43;0.43;;;;;;;2.95;100.00;97959.25;5011472;28;20076;-81
2021/03/12 08:08:41;;;;;;;0.43;0.43;;;;;;;2.91;100.00;97953.19;5010430;28;20062;-83
2021/03/12 08:11:52;;;;;;;0.65;0.65;;;;;;;2.92;100.00;97955.47;5011312;28;20428;-81
2021/03/12 08:15:11;;;;;;;0.60;0.60;;;;;;;2.88;100.00;97943.88;5011619;28;20069;-80
2021/03/12 08:18:15;;;;;;;0.50;0.50;;;;;;;2.90;100.00;97957.91;5011848;28;20065;-79
2021/03/12 08:21:30;;;;;;;0.68;0.68;;;;;;;2.96;100.00;97950.56;5010326;28;20064;-80
2021/03/12 08:24:46;;;;;;;0.70;0.70;;;;;;;3.02;100.00;97954.19;5010506;28;20073;-80
2021/03/12 08:27:50;;;;;;;0.30;0.30;;;;;;;3.12;100.00;97951.34;5010157;28;20065;-79
2021/03/12 08:30:55;;;;;;;0.30;0.30;;;;;;;3.19;100.00;97954.47;5006783;28;20065;-80
2021/03/12 08:34:36;;;;;;;0.57;0.57;;;;;;;3.35;100.00;97953.28;5001841;28;20057;-79
2021/03/12 08:37:40;;;;;;;3.43;0.60;;;;;;;3.45;100.00;97946.44;5001937;28;20135;-79
2021/03/12 08:41:01;;;;;;;1.08;0.60;;;;;;;3.46;100.00;97959.75;5001343;28;20070;-79
2021/03/12 08:44:12;;;;;;;0.45;0.45;;;;;;;3.41;100.00;97962.38;4985713;28;20535;-79
2021/03/12 08:47:18;;;;;;;0.30;0.30;;;;;;;3.44;100.00;97977.94;5001606;28;20057;-79
2021/03/12 08:50:22;;;;;;;2.40;0.75;;;;;;;3.57;100.00;97970.91;5000742;28;20065;-79
2021/03/12 08:53:36;;;;;;;0.98;0.88;;;;;;;3.86;100.00;97967.41;5001841;28;20061;-79
2021/03/12 08:56:40;;;;;;;2.15;0.60;;;;;;;3.91;100.00;97969.50;5003751;28;20424;-79
2021/03/12 08:59:44;;;;;;;11.27;0.60;;;;;;;4.01;100.00;97968.16;4999993;28;20069;-79
2021/03/12 09:02:48;;;;;;;0.60;0.60;;;;;;;4.06;100.00;97977.72;5002209;28;20081;-79
2021/03/12 09:05:53;;;;;;;0.57;0.55;;;;;;;4.13;100.00;97964.34;5002168;28;20070;-80
2021/03/12 09:08:57;;;;;;;0.35;0.35;;;;;;;4.22;100.00;97964.19;5000473;28;20065;-79
2021/03/12 09:12:01;;;;;;;0.43;0.43;;;;;;;4.40;100.00;97958.47;5001198;28;20064;-79
2021/03/12 09:15:05;;;;;;;0.65;0.55;;;;;;;4.53;100.00;97969.91;4997379;28;20077;-79
2021/03/12 09:18:13;;;;;;;4.35;0.65;;;;;;;4.50;100.00;97962.59;5010628;28;20061;-80
2021/03/12 09:21:20;;;;;;;1.10;0.75;;;;;;;4.40;100.00;97972.25;5007606;28;20086;-80
2021/03/12 09:24:23;;;;;;;0.50;0.50;;;;;;;4.37;100.00;97975.97;4997860;28;20073;-80
2021/03/12 09:27:27;;;;;;;0.40;0.40;;;;;;;4.27;100.00;97988.34;4999761;28;20057;-82
2021/03/12 09:30:37;;;;;;;0.68;0.68;;;;;;;4.09;100.00;97996.06;4991308;28;20057;-83
2021/03/12 09:33:43;;;;;;;1.00;0.73;;;;;;;3.55;100.00;97983.66;4989621;28;20057;-83
2021/03/12 09:36:49;;;;;;;4.15;1.45;;;;;;;3.22;100.00;97989.31;4990400;28;20073;-83
2021/03/12 09:39:53;;;;;;;1.45;1.25;;;;;;;3.17;100.00;97997.44;4989652;28;20057;-80
2021/03/12 09:42:57;;;;;;;2.78;1.48;;;;;;;3.24;100.00;98003.34;4990362;28;20053;-81
2021/03/12 09:46:00;;;;;;;0.95;0.95;;;;;;;3.38;100.00;98002.59;4990454;28;20061;-88
2021/03/12 09:49:13;;;;;;;0.45;0.45;;;;;;;3.70;100.00;98006.44;4989681;28;20053;-81
2021/03/12 09:52:18;;;;;;;0.50;0.50;;;;;;;3.82;100.00;97997.13;4990257;28;20073;-81
2021/03/12 09:55:23;;;;;;;2.65;0.77;;;;;;;3.98;100.00;98007.66;4989237;28;20061;-80
2021/03/12 09:58:27;;;;;;;0.75;0.63;;;;;;;4.12;100.00;98009.63;4990297;28;20446;-80
2021/03/12 10:01:40;;;;;;;0.40;0.40;;;;;;;4.23;100.00;98015.31;4991114;28;20065;-80
2021/03/12 10:04:54;;;;;;;0.40;0.40;;;;;;;4.30;100.00;98016.94;4990394;28;20429;-80
2021/03/12 10:08:03;;;;;;;0.30;0.30;;;;;;;4.31;100.00;98010.94;4990432;28;20065;-80
2021/03/12 10:11:07;;;;;;;0.50;0.50;;;;;;;4.44;100.00;98022.41;4991176;28;20065;-81
2021/03/12 10:14:30;;;;;;;0.50;0.50;;;;;;;4.48;100.00;98019.47;4990519;28;20073;-81
2021/03/12 10:17:39;;;;;;;0.28;0.28;;;;;;;4.43;100.00;98023.66;4990250;28;20065;-82
2021/03/12 10:20:43;;;;;;;0.57;0.40;;;;;;;4.45;100.00;98025.91;4990049;28;20062;-81
2021/03/12 10:23:50;;;;;;;7.53;1.02;;;;;;;4.48;100.00;98020.19;4990117;28;20069;-81
2021/03/12 10:26:53;;;;;;;0.55;0.55;;;;;;;4.51;100.00;98024.75;4990296;28;20420;-81
2021/03/12 10:29:57;;;;;;;2.20;1.02;;;;;;;4.67;100.00;98026.25;4990134;28;20069;-82
2021/03/12 10:33:04;;;;;;;0.63;0.40;;;;;;;4.63;100.00;98015.41;4990362;28;20065;-82
2021/03/12 10:36:16;;;;;;;0.22;0.22;;;;;;;4.58;100.00;98013.34;4989312;28;20057;-82
2021/03/12 10:39:39;;;;;;;0.52;0.32;;;;;;;4.62;100.00;98007.63;4989743;28;20066;-81
2021/03/12 10:42:43;;;;;;;1.08;0.80;;;;;;;4.80;100.00;98009.38;4989826;28;20061;-81
2021/03/12 10:45:50;;;;;;;0.30;0.30;;;;;;;5.23;100.00;98005.66;4989535;28;20057;-83
2021/03/12 10:48:54;;;;;;;6.70;1.65;;;;;;;5.32;100.00;98008.25;4990440;28;20057;-82
2021/03/12 10:51:58;;;;;;;0.38;0.38;;;;;;;5.18;100.00;98006.34;4993210;28;20061;-81
2021/03/12 10:55:10;;;;;;;0.30;0.30;;;;;;;5.52;100.00;98016.53;4993239;28;20069;-81
2021/03/12 10:58:21;;;;;;;0.65;0.50;;;;;;;5.79;100.00;98004.22;4992909;28;20066;-83
2021/03/12 11:01:29;;;;;;;0.50;0.50;;;;;;;5.96;100.00;98005.91;4993102;28;20065;-81
2021/03/12 11:04:32;;;;;;;2.17;0.70;;;;;;;6.07;100.00;98017.06;4993381;28;20119;-81
2021/03/12 11:07:36;;;;;;;5.40;0.43;;;;;;;6.05;100.00;98008.50;4992827;28;20432;-80
2021/03/12 11:10:40;;;;;;;0.20;0.20;;;;;;;6.05;100.00;98008.50;4992739;28;20061;-80
2021/03/12 11:13:44;;;;;;;1.00;0.75;;;;;;;6.15;100.00;98005.56;4992999;28;20069;-81
2021/03/12 11:16:48;;;;;;;0.43;0.43;;;;;;;6.16;100.00;98016.13;5008448;28;20080;-80
2021/03/12 11:19:51;;;;;;;0.30;0.30;;;;;;;6.05;100.00;98016.81;5012702;28;20419;-80
2021/03/12 11:22:56;;;;;;;0.45;0.45;;;;;;;6.00;100.00;98011.97;5012358;28;20073;-80
2021/03/12 11:26:00;;;;;;;0.30;0.30;;;;;;;6.16;100.00;98023.66;5011532;28;20061;-81
2021/03/12 11:29:03;;;;;;;1.83;0.73;;;;;;;6.32;100.00;98020.28;5011715;28;20064;-80
2021/03/12 11:32:07;;;;;;;0.30;0.20;;;;;;;6.31;100.00;98013.22;5012763;28;20061;-80
2021/03/12 11:35:14;;;;;;;1.50;0.25;;;;;;;6.28;100.00;98014.22;5011740;28;20080;-79
2021/03/12 11:38:17;;;;;;;0.28;0.28;;;;;;;6.22;100.00;98011.41;5011272;28;20053;-80
2021/03/12 11:41:21;;;;;;;0.15;0.15;;;;;;;6.23;100.00;98001.88;5012301;28;20057;-80
2021/03/12 11:44:24;;;;;;;0.20;0.20;;;;;;;6.32;100.00;98009.22;5012339;28;20057;-79
2021/03/12 11:47:28;;;;;;;3.13;0.73;;;;;;;6.16;100.00;98018.91;5011298;28;20523;-79
2021/03/12 11:50:34;;;;;;;2.90;0.50;;;;;;;6.18;100.00;98026.69;5011915;28;20073;-80
2021/03/12 11:53:37;;;;;;;0.77;0.60;;;;;;;6.32;100.00;98031.34;5011911;28;20069;-79
2021/03/12 11:56:41;;;;;;;4.68;0.82;;;;;;;6.51;100.00;98030.47;5011836;28;20068;-79
2021/03/12 11:59:45;;;;;;;1.55;1.15;;;;;;;6.63;100.00;98023.00;5011361;28;20420;-80
2021/03/12 12:02:50;;;;;;;1.40;0.88;;;;;;;6.94;100.00;98017.41;5012338;28;20065;-79
2021/03/12 12:05:54;;;;;;;1.50;0.73;;;;;;;7.34;100.00;98019.84;5011500;28;20061;-80
2021/03/12 12:08:57;;;;;;;2.65;1.30;;;;;;;7.48;100.00;98002.28;5011456;28;20437;-80
2021/03/12 12:12:01;;;;;;;1.08;0.30;;;;;;;7.41;100.00;98010.28;5011351;28;20089;-79
2021/03/12 12:15:05;;;;;;;0.80;0.50;;;;;;;7.05;100.00;98008.41;5011045;28;20060;-80
2021/03/12 12:18:11;;;;;;;0.20;0.20;;;;;;;6.72;100.00;98020.03;5012253;28;20061;-79
2021/03/12 12:21:14;;;;;;;0.20;0.20;;;;;;;6.33;100.00;98013.50;5011306;28;20061;-79
2021/03/12 12:24:18;;;;;;;0.40;0.30;;;;;;;6.02;100.00;98015.00;5010121;28;20060;-79
2021/03/12 12:27:22;;;;;;;0.35;0.35;;;;;;;5.87;100.00;98014.38;5011481;28;20065;-79
2021/03/12 12:30:26;;;;;;;4.97;1.75;;;;;;;5.88;100.00;98015.91;5011696;28;20069;-79
2021/03/12 12:33:30;;;;;;;0.30;0.30;;;;;;;6.01;100.00;98007.97;5010543;28;20093;-79
2021/03/12 12:36:34;;;;;;;7.47;0.65;;;;;;;6.22;100.00;98018.94;5010350;28;20065;-79
2021/03/12 12:39:37;;;;;;;1.48;0.60;;;;;;;6.51;100.00;98015.88;5011276;28;20088;-79
2021/03/12 12:42:41;;;;;;;0.20;0.20;;;;;;;6.72;100.00;98004.22;5011072;28;20061;-79
2021/03/12 12:45:45;;;;;;;0.20;0.20;;;;;;;6.84;100.00;98011.31;5011491;28;20061;-79
2021/03/12 12:48:49;;;;;;;0.63;0.28;;;;;;;7.11;100.00;98004.41;5010656;28;20061;-79
2021/03/12 12:51:52;;;;;;;0.30;0.30;;;;;;;7.41;100.00;97990.91;5010939;28;20064;-79
2021/03/12 12:54:56;;;;;;;3.22;0.55;;;;;;;7.51;100.00;97994.97;5010451;28;20061;-79
2021/03/12 12:58:00;;;;;;;0.90;0.32;;;;;;;7.71;100.00;97996.78;5010430;28;20056;-79
2021/03/12 13:01:03;;;;;;;1.88;0.57;;;;;;;7.83;100.00;97993.53;5011066;28;20058;-80
2021/03/12 13:04:07;;;;;;;0.47;0.28;;;;;;;7.86;100.00;97994.53;5010497;28;20420;-79
2021/03/12 13:07:10;;;;;;;0.20;0.20;;;;;;;7.81;100.00;97992.50;5010387;28;20077;-80
2021/03/12 13:10:14;;;;;;;1.17;0.35;;;;;;;7.79;100.00;97989.47;5010321;28;20068;-80
2021/03/12 13:13:18;;;;;;;0.13;0.13;;;;;;;7.64;100.00;97984.91;5009116;28;20061;-80
2021/03/12 13:16:21;;;;;;;2.60;0.30;;;;;;;7.48;100.00;97985.66;5010406;28;20443;-80
2021/03/12 13:19:25;;;;;;;0.47;0.28;;;;;;;7.51;100.00;98001.25;5010579;28;20053;-79
2021/03/12 13:22:30;;;;;;;1.80;0.43;;;;;;;7.61;100.00;97988.69;5009993;28;20514;-79
2021/03/12 13:25:33;;;;;;;0.22;0.22;;;;;;;7.60;100.00;97991.97;5009735;28;20061;-79
2021/03/12 13:28:37;;;;;;;0.20;0.20;;;;;;;7.48;100.00;98007.81;5010344;28;20061;-79
2021/03/12 13:31:41;;;;;;;0.43;0.35;;;;;;;7.39;100.00;97988.63;5010575;28;20065;-80
2021/03/12 13:34:44;;;;;;;0.30;0.30;;;;;;;7.37;100.00;97993.94;5009914;28;20065;-79
2021/03/12 13:37:48;;;;;;;0.82;0.55;;;;;;;7.31;100.00;97993.16;5008660;28;20060;-77
2021/03/12 13:40:54;;;;;;;2.75;0.35;;;;;;;7.22;100.00;97990.59;5010117;28;20437;-77
2021/03/12 13:43:57;;;;;;;0.20;0.20;;;;;;;7.06;100.00;97998.84;5009875;28;20065;-77
2021/03/12 13:47:02;;;;;;;3.10;0.70;;;;;;;6.95;100.00;97980.19;5008983;28;20053;-78
2021/03/12 13:50:08;;;;;;;3.95;0.70;;;;;;;6.95;100.00;97994.03;5009857;28;20412;-77
2021/03/12 13:53:12;;;;;;;0.13;0.13;;;;;;;6.84;100.00;97988.44;5009810;28;20073;-77
2021/03/12 13:56:15;;;;;;;0.22;0.22;;;;;;;6.77;100.00;97978.59;5009934;28;20061;-78
2021/03/12 13:59:18;;;;;;;0.30;0.30;;;;;;;6.75;100.00;97974.81;5009127;28;20049;-78
2021/03/12 14:02:22;;;;;;;0.20;0.20;;;;;;;6.91;100.00;97979.66;5010401;28;20599;-77
2021/03/12 14:05:26;;;;;;;0.17;0.17;;;;;;;7.33;100.00;97990.66;5009841;28;20069;-77
2021/03/12 14:08:29;;;;;;;1.13;0.20;;;;;;;7.70;100.00;97984.19;5010298;28;20060;-78
2021/03/12 14:11:32;;;;;;;2.10;0.22;;;;;;;7.85;100.00;97979.16;5010167;28;20148;-78
2021/03/12 14:14:36;;;;;;;12.45;0.73;;;;;;;7.98;100.00;97984.97;5009998;28;20066;-77
2021/03/12 14:17:40;;;;;;;0.15;0.15;;;;;;;8.20;100.00;97976.66;4990795;28;20069;-77
2021/03/12 14:20:43;;;;;;;0.45;0.45;;;;;;;8.17;100.00;97978.41;4990549;28;20413;-79
2021/03/12 14:23:46;;;;;;;0.30;0.30;;;;;;;8.01;100.00;97970.09;4992218;28;20069;-79
2021/03/12 14:26:50;;;;;;;1.13;0.13;;;;;;;7.79;100.00;97970.09;4993420;28;20085;-79
2021/03/12 14:29:54;;;;;;;0.10;0.10;;;;;;;7.61;100.00;97969.31;4993218;28;20061;-78
2021/03/12 14:32:57;;;;;;;0.85;0.63;;;;;;;7.74;100.00;97962.50;4993691;28;20077;-78